sensor_id;sensor_type;location;lat;lon;timestamp;temperature;humidity
17178;DHT22;8704;52.006;4.374;2023-04-15T00:01:57;10.10;99.90
17178;DHT22;8704;52.006;4.374;2023-04-15T00:04:26;8.90;99.90
17178;DHT22;8704;52.006;4.374;2023-04-15T00:06:54;8.80;99.90
17178;DHT22;8704;52.006;4.374;2023-04-15T00:09:24;8.90;99.90
17178;DHT22;8704;52.006;4.374;2023-04-15T00:11:52;8.90;99.90
17178;DHT22;8704;52.006;4.374;2023-04-15T00:14:20;9.00;99.90
17178;DHT22;8704;52.006;4.374;2023-04-15T00:16:48;9.40;99.90
17178;DHT22;8704;52.006;4.374;2023-04-15T00:19:21;8.90;99.90
17178;DHT22;8704;52.006;4.374;2023-04-15T00:21:49;8.90;99.90
17178;DHT22;8704;52.006;4.374;2023-04-15T00:24:17;9.00;99.90
17178;DHT22;8704;52.006;4.374;2023-04-15T00:26:47;9.20;99.90
17178;DHT22;8704;52.006;4.374;2023-04-15T00:29:15;8.90;99.90
17178;DHT22;8704;52.006;4.374;2023-04-15T00:31:43;9.00;99.90
17178;DHT22;8704;52.006;4.374;2023-04-15T00:34:11;8.90;99.90
17178;DHT22;8704;52.006;4.374;2023-04-15T00:36:39;8.90;99.90
17178;DHT22;8704;52.006;4.374;2023-04-15T00:39:07;8.90;99.90
17178;DHT22;8704;52.006;4.374;2023-04-15T00:41:35;9.10;99.90
17178;DHT22;8704;52.006;4.374;2023-04-15T00:44:07;8.80;99.90
17178;DHT22;8704;52.006;4.374;2023-04-15T00:46:35;9.00;99.90
17178;DHT22;8704;52.006;4.374;2023-04-15T00:49:06;8.80;99.90
17178;DHT22;8704;52.006;4.374;2023-04-15T00:51:34;8.80;99.90
17178;DHT22;8704;52.006;4.374;2023-04-15T00:54:03;8.80;99.90
17178;DHT22;8704;52.006;4.374;2023-04-15T00:56:34;8.80;99.90
17178;DHT22;8704;52.006;4.374;2023-04-15T00:59:04;8.80;99.90
17178;DHT22;8704;52.006;4.374;2023-04-15T01:01:35;8.80;99.90
17178;DHT22;8704;52.006;4.374;2023-04-15T01:04:04;8.80;99.90
17178;DHT22;8704;52.006;4.374;2023-04-15T01:06:32;8.90;99.90
17178;DHT22;8704;52.006;4.374;2023-04-15T01:09:00;8.70;99.90
17178;DHT22;8704;52.006;4.374;2023-04-15T01:11:29;8.70;99.90
17178;DHT22;8704;52.006;4.374;2023-04-15T01:13:59;8.70;99.90
17178;DHT22;8704;52.006;4.374;2023-04-15T01:16:27;8.70;99.90
17178;DHT22;8704;52.006;4.374;2023-04-15T01:18:56;8.70;99.90
17178;DHT22;8704;52.006;4.374;2023-04-15T01:21:25;8.70;99.90
17178;DHT22;8704;52.006;4.374;2023-04-15T01:23:54;8.60;99.90
17178;DHT22;8704;52.006;4.374;2023-04-15T01:26:25;8.70;99.90
17178;DHT22;8704;52.006;4.374;2023-04-15T01:28:53;8.70;99.90
17178;DHT22;8704;52.006;4.374;2023-04-15T01:31:22;8.70;99.90
17178;DHT22;8704;52.006;4.374;2023-04-15T01:33:50;8.60;99.90
17178;DHT22;8704;52.006;4.374;2023-04-15T01:36:18;8.70;99.90
17178;DHT22;8704;52.006;4.374;2023-04-15T01:38:46;8.70;99.90
17178;DHT22;8704;52.006;4.374;2023-04-15T01:41:14;8.60;99.90
17178;DHT22;8704;52.006;4.374;2023-04-15T01:43:44;8.60;99.90
17178;DHT22;8704;52.006;4.374;2023-04-15T01:46:12;8.50;99.90
17178;DHT22;8704;52.006;4.374;2023-04-15T01:48:40;8.50;99.90
17178;DHT22;8704;52.006;4.374;2023-04-15T01:51:08;8.70;99.90
17178;DHT22;8704;52.006;4.374;2023-04-15T01:53:37;8.50;99.90
17178;DHT22;8704;52.006;4.374;2023-04-15T01:56:05;8.50;99.90
17178;DHT22;8704;52.006;4.374;2023-04-15T01:58:34;8.40;99.90
17178;DHT22;8704;52.006;4.374;2023-04-15T02:01:04;8.40;99.90
17178;DHT22;8704;52.006;4.374;2023-04-15T02:03:32;8.40;99.90
17178;DHT22;8704;52.006;4.374;2023-04-15T02:06:01;8.40;99.90
17178;DHT22;8704;52.006;4.374;2023-04-15T02:08:30;8.90;99.90
17178;DHT22;8704;52.006;4.374;2023-04-15T02:10:58;8.40;99.90
17178;DHT22;8704;52.006;4.374;2023-04-15T02:13:26;8.90;99.90
17178;DHT22;8704;52.006;4.374;2023-04-15T02:15:56;8.70;99.90
17178;DHT22;8704;52.006;4.374;2023-04-15T02:18:26;8.30;99.90
17178;DHT22;8704;52.006;4.374;2023-04-15T02:20:54;8.30;99.90
17178;DHT22;8704;52.006;4.374;2023-04-15T02:23:23;8.80;99.90
17178;DHT22;8704;52.006;4.374;2023-04-15T02:25:51;8.20;99.90
17178;DHT22;8704;52.006;4.374;2023-04-15T02:28:20;8.20;99.90
17178;DHT22;8704;52.006;4.374;2023-04-15T02:30:48;8.20;99.90
17178;DHT22;8704;52.006;4.374;2023-04-15T02:33:19;8.10;99.90
17178;DHT22;8704;52.006;4.374;2023-04-15T02:35:49;8.20;99.90
17178;DHT22;8704;52.006;4.374;2023-04-15T02:38:17;8.30;99.90
17178;DHT22;8704;52.006;4.374;2023-04-15T02:40:45;8.10;99.90
17178;DHT22;8704;52.006;4.374;2023-04-15T02:43:15;8.50;99.90
17178;DHT22;8704;52.006;4.374;2023-04-15T02:45:44;8.10;99.90
17178;DHT22;8704;52.006;4.374;2023-04-15T02:48:13;8.10;99.90
17178;DHT22;8704;52.006;4.374;2023-04-15T02:50:44;8.20;99.90
17178;DHT22;8704;52.006;4.374;2023-04-15T02:53:13;8.30;99.90
17178;DHT22;8704;52.006;4.374;2023-04-15T02:55:41;8.20;99.90
17178;DHT22;8704;52.006;4.374;2023-04-15T02:58:09;8.00;99.90
17178;DHT22;8704;52.006;4.374;2023-04-15T03:00:38;8.10;99.90
17178;DHT22;8704;52.006;4.374;2023-04-15T03:03:05;9.00;99.90
17178;DHT22;8704;52.006;4.374;2023-04-15T03:05:34;8.00;99.90
17178;DHT22;8704;52.006;4.374;2023-04-15T03:08:04;8.50;99.90
17178;DHT22;8704;52.006;4.374;2023-04-15T03:10:34;8.50;99.90
17178;DHT22;8704;52.006;4.374;2023-04-15T03:13:02;8.00;99.90
17178;DHT22;8704;52.006;4.374;2023-04-15T03:15:31;8.10;99.90
17178;DHT22;8704;52.006;4.374;2023-04-15T03:17:59;8.00;99.90
17178;DHT22;8704;52.006;4.374;2023-04-15T03:20:28;8.00;99.90
17178;DHT22;8704;52.006;4.374;2023-04-15T03:22:56;8.00;99.90
17178;DHT22;8704;52.006;4.374;2023-04-15T03:25:24;8.00;99.90
17178;DHT22;8704;52.006;4.374;2023-04-15T03:27:54;8.00;99.90
17178;DHT22;8704;52.006;4.374;2023-04-15T03:30:22;8.20;99.90
17178;DHT22;8704;52.006;4.374;2023-04-15T03:32:50;7.90;99.90
17178;DHT22;8704;52.006;4.374;2023-04-15T03:35:18;7.90;99.90
17178;DHT22;8704;52.006;4.374;2023-04-15T03:37:46;7.90;99.90
17178;DHT22;8704;52.006;4.374;2023-04-15T03:40:14;7.80;99.90
17178;DHT22;8704;52.006;4.374;2023-04-15T03:42:42;7.80;1.00
17178;DHT22;8704;52.006;4.374;2023-04-15T03:45:12;7.80;99.90
17178;DHT22;8704;52.006;4.374;2023-04-15T03:47:40;7.80;1.00
17178;DHT22;8704;52.006;4.374;2023-04-15T03:50:08;7.70;1.00
17178;DHT22;8704;52.006;4.374;2023-04-15T03:52:36;7.70;99.90
17178;DHT22;8704;52.006;4.374;2023-04-15T03:55:05;7.90;1.00
17178;DHT22;8704;52.006;4.374;2023-04-15T03:57:34;7.70;99.90
17178;DHT22;8704;52.006;4.374;2023-04-15T04:00:05;7.70;99.90
17178;DHT22;8704;52.006;4.374;2023-04-15T04:02:36;7.70;1.00
17178;DHT22;8704;52.006;4.374;2023-04-15T04:05:05;7.60;1.00
17178;DHT22;8704;52.006;4.374;2023-04-15T04:07:33;7.60;1.00
17178;DHT22;8704;52.006;4.374;2023-04-15T04:10:01;7.60;1.00
17178;DHT22;8704;52.006;4.374;2023-04-15T04:12:30;7.60;1.00
17178;DHT22;8704;52.006;4.374;2023-04-15T04:14:58;7.50;1.00
17178;DHT22;8704;52.006;4.374;2023-04-15T04:17:26;7.50;1.00
17178;DHT22;8704;52.006;4.374;2023-04-15T04:19:55;7.50;1.00
17178;DHT22;8704;52.006;4.374;2023-04-15T04:22:23;7.50;1.00
17178;DHT22;8704;52.006;4.374;2023-04-15T04:24:51;7.50;1.00
17178;DHT22;8704;52.006;4.374;2023-04-15T04:27:19;7.40;1.00
17178;DHT22;8704;52.006;4.374;2023-04-15T04:29:47;7.40;1.00
17178;DHT22;8704;52.006;4.374;2023-04-15T04:32:15;7.40;1.00
17178;DHT22;8704;52.006;4.374;2023-04-15T04:34:43;7.40;1.00
17178;DHT22;8704;52.006;4.374;2023-04-15T04:37:13;7.60;1.00
17178;DHT22;8704;52.006;4.374;2023-04-15T04:39:40;7.30;1.00
17178;DHT22;8704;52.006;4.374;2023-04-15T04:42:08;7.30;1.00
17178;DHT22;8704;52.006;4.374;2023-04-15T04:44:36;7.30;1.00
17178;DHT22;8704;52.006;4.374;2023-04-15T04:47:04;7.20;1.00
17178;DHT22;8704;52.006;4.374;2023-04-15T04:49:33;7.20;1.00
17178;DHT22;8704;52.006;4.374;2023-04-15T04:52:01;7.20;1.00
17178;DHT22;8704;52.006;4.374;2023-04-15T04:54:30;7.20;1.00
17178;DHT22;8704;52.006;4.374;2023-04-15T04:56:58;7.40;1.00
17178;DHT22;8704;52.006;4.374;2023-04-15T04:59:27;7.90;1.00
17178;DHT22;8704;52.006;4.374;2023-04-15T05:01:55;7.30;1.00
17178;DHT22;8704;52.006;4.374;2023-04-15T05:04:23;7.10;1.00
17178;DHT22;8704;52.006;4.374;2023-04-15T05:06:51;7.10;1.00
17178;DHT22;8704;52.006;4.374;2023-04-15T05:09:19;7.10;1.00
17178;DHT22;8704;52.006;4.374;2023-04-15T05:11:49;7.10;1.00
17178;DHT22;8704;52.006;4.374;2023-04-15T05:14:17;7.10;1.00
17178;DHT22;8704;52.006;4.374;2023-04-15T05:16:46;7.10;1.00
17178;DHT22;8704;52.006;4.374;2023-04-15T05:19:14;7.10;1.00
17178;DHT22;8704;52.006;4.374;2023-04-15T05:21:42;7.10;1.00
17178;DHT22;8704;52.006;4.374;2023-04-15T05:24:10;7.10;1.00
17178;DHT22;8704;52.006;4.374;2023-04-15T05:26:38;7.10;1.00
17178;DHT22;8704;52.006;4.374;2023-04-15T05:29:09;7.10;1.00
17178;DHT22;8704;52.006;4.374;2023-04-15T05:31:37;7.10;1.00
17178;DHT22;8704;52.006;4.374;2023-04-15T05:34:06;7.10;1.00
17178;DHT22;8704;52.006;4.374;2023-04-15T05:36:34;7.30;1.00
17178;DHT22;8704;52.006;4.374;2023-04-15T05:39:02;7.10;1.00
17178;DHT22;8704;52.006;4.374;2023-04-15T05:41:30;7.20;1.00
17178;DHT22;8704;52.006;4.374;2023-04-15T05:43:58;7.10;1.00
17178;DHT22;8704;52.006;4.374;2023-04-15T05:46:27;7.10;1.00
17178;DHT22;8704;52.006;4.374;2023-04-15T05:48:55;7.20;1.00
17178;DHT22;8704;52.006;4.374;2023-04-15T05:51:23;7.20;1.00
17178;DHT22;8704;52.006;4.374;2023-04-15T05:53:52;7.20;1.00
17178;DHT22;8704;52.006;4.374;2023-04-15T05:56:20;7.20;1.00
17178;DHT22;8704;52.006;4.374;2023-04-15T05:58:48;7.20;1.00
17178;DHT22;8704;52.006;4.374;2023-04-15T06:01:19;7.40;1.00
17178;DHT22;8704;52.006;4.374;2023-04-15T06:03:49;7.30;1.00
17178;DHT22;8704;52.006;4.374;2023-04-15T06:06:17;7.30;1.00
17178;DHT22;8704;52.006;4.374;2023-04-15T06:08:46;7.30;1.00
17178;DHT22;8704;52.006;4.374;2023-04-15T06:11:14;7.40;1.00
17178;DHT22;8704;52.006;4.374;2023-04-15T06:13:42;8.00;1.00
17178;DHT22;8704;52.006;4.374;2023-04-15T06:16:10;7.50;1.00
17178;DHT22;8704;52.006;4.374;2023-04-15T06:18:39;7.60;1.00
17178;DHT22;8704;52.006;4.374;2023-04-15T06:21:08;7.50;1.00
17178;DHT22;8704;52.006;4.374;2023-04-15T06:23:37;8.10;1.00
17178;DHT22;8704;52.006;4.374;2023-04-15T06:26:07;7.60;1.00
17178;DHT22;8704;52.006;4.374;2023-04-15T06:28:35;7.70;1.00
17178;DHT22;8704;52.006;4.374;2023-04-15T06:31:03;7.70;1.00
17178;DHT22;8704;52.006;4.374;2023-04-15T06:33:31;8.20;1.00
17178;DHT22;8704;52.006;4.374;2023-04-15T06:35:59;8.10;1.00
17178;DHT22;8704;52.006;4.374;2023-04-15T06:38:29;7.80;1.00
17178;DHT22;8704;52.006;4.374;2023-04-15T06:40:57;8.00;1.00
17178;DHT22;8704;52.006;4.374;2023-04-15T06:43:25;8.10;1.00
17178;DHT22;8704;52.006;4.374;2023-04-15T06:45:53;8.00;1.00
17178;DHT22;8704;52.006;4.374;2023-04-15T06:48:23;8.10;1.00
17178;DHT22;8704;52.006;4.374;2023-04-15T06:50:51;8.10;1.00
17178;DHT22;8704;52.006;4.374;2023-04-15T06:53:19;8.40;1.00
17178;DHT22;8704;52.006;4.374;2023-04-15T06:55:49;8.20;1.00
17178;DHT22;8704;52.006;4.374;2023-04-15T06:58:17;8.30;1.00
17178;DHT22;8704;52.006;4.374;2023-04-15T07:00:45;8.40;1.00
17178;DHT22;8704;52.006;4.374;2023-04-15T07:03:14;8.40;1.00
17178;DHT22;8704;52.006;4.374;2023-04-15T07:05:42;8.50;1.00
17178;DHT22;8704;52.006;4.374;2023-04-15T07:08:10;8.60;1.00
17178;DHT22;8704;52.006;4.374;2023-04-15T07:10:38;8.70;1.00
17178;DHT22;8704;52.006;4.374;2023-04-15T07:13:08;8.70;1.00
17178;DHT22;8704;52.006;4.374;2023-04-15T07:15:37;8.70;1.00
17178;DHT22;8704;52.006;4.374;2023-04-15T07:18:05;8.80;1.00
17178;DHT22;8704;52.006;4.374;2023-04-15T07:20:33;8.90;1.00
17178;DHT22;8704;52.006;4.374;2023-04-15T07:23:01;9.00;1.00
17178;DHT22;8704;52.006;4.374;2023-04-15T07:25:29;9.00;1.00
17178;DHT22;8704;52.006;4.374;2023-04-15T07:27:57;9.00;1.00
17178;DHT22;8704;52.006;4.374;2023-04-15T07:30:26;9.10;1.00
17178;DHT22;8704;52.006;4.374;2023-04-15T07:32:55;9.20;1.00
17178;DHT22;8704;52.006;4.374;2023-04-15T07:35:23;9.20;1.00
17178;DHT22;8704;52.006;4.374;2023-04-15T07:37:52;9.30;1.00
17178;DHT22;8704;52.006;4.374;2023-04-15T07:40:20;9.50;1.00
17178;DHT22;8704;52.006;4.374;2023-04-15T07:42:48;9.40;1.00
17178;DHT22;8704;52.006;4.374;2023-04-15T07:45:16;9.70;1.00
17178;DHT22;8704;52.006;4.374;2023-04-15T07:47:45;9.60;1.00
17178;DHT22;8704;52.006;4.374;2023-04-15T07:50:14;9.70;1.00
17178;DHT22;8704;52.006;4.374;2023-04-15T07:52:43;9.70;1.00
17178;DHT22;8704;52.006;4.374;2023-04-15T07:55:11;9.80;1.00
17178;DHT22;8704;52.006;4.374;2023-04-15T07:57:39;9.70;1.00
17178;DHT22;8704;52.006;4.374;2023-04-15T08:00:08;10.20;1.00
17178;DHT22;8704;52.006;4.374;2023-04-15T08:02:37;10.00;1.00
17178;DHT22;8704;52.006;4.374;2023-04-15T08:05:08;10.00;1.00
17178;DHT22;8704;52.006;4.374;2023-04-15T08:07:37;10.10;1.00
17178;DHT22;8704;52.006;4.374;2023-04-15T08:10:06;10.20;1.00
17178;DHT22;8704;52.006;4.374;2023-04-15T08:12:34;10.30;1.00
17178;DHT22;8704;52.006;4.374;2023-04-15T08:15:03;10.30;1.00
17178;DHT22;8704;52.006;4.374;2023-04-15T08:17:31;10.40;1.00
17178;DHT22;8704;52.006;4.374;2023-04-15T08:19:59;10.50;1.00
17178;DHT22;8704;52.006;4.374;2023-04-15T08:22:29;10.60;1.00
17178;DHT22;8704;52.006;4.374;2023-04-15T08:24:57;10.70;1.00
17178;DHT22;8704;52.006;4.374;2023-04-15T08:27:25;10.70;1.00
17178;DHT22;8704;52.006;4.374;2023-04-15T08:29:53;10.80;1.00
17178;DHT22;8704;52.006;4.374;2023-04-15T08:32:21;10.80;1.00
17178;DHT22;8704;52.006;4.374;2023-04-15T08:34:49;10.90;1.00
17178;DHT22;8704;52.006;4.374;2023-04-15T08:37:17;10.90;1.00
17178;DHT22;8704;52.006;4.374;2023-04-15T08:39:46;11.00;1.00
17178;DHT22;8704;52.006;4.374;2023-04-15T08:42:16;11.00;1.00
17178;DHT22;8704;52.006;4.374;2023-04-15T08:44:45;11.20;1.00
17178;DHT22;8704;52.006;4.374;2023-04-15T08:47:16;11.30;1.00
17178;DHT22;8704;52.006;4.374;2023-04-15T08:49:47;11.30;1.00
17178;DHT22;8704;52.006;4.374;2023-04-15T08:52:19;11.40;1.00
17178;DHT22;8704;52.006;4.374;2023-04-15T08:54:49;11.50;1.00
17178;DHT22;8704;52.006;4.374;2023-04-15T08:57:18;11.60;1.00
17178;DHT22;8704;52.006;4.374;2023-04-15T08:59:46;11.60;1.00
17178;DHT22;8704;52.006;4.374;2023-04-15T09:02:15;11.70;1.00
17178;DHT22;8704;52.006;4.374;2023-04-15T09:04:43;11.70;1.00
17178;DHT22;8704;52.006;4.374;2023-04-15T09:07:11;11.80;1.00
17178;DHT22;8704;52.006;4.374;2023-04-15T09:09:39;11.80;1.00
17178;DHT22;8704;52.006;4.374;2023-04-15T09:12:11;11.90;1.00
17178;DHT22;8704;52.006;4.374;2023-04-15T09:14:41;12.00;1.00
17178;DHT22;8704;52.006;4.374;2023-04-15T09:17:09;12.00;1.00
17178;DHT22;8704;52.006;4.374;2023-04-15T09:19:38;12.00;1.00
17178;DHT22;8704;52.006;4.374;2023-04-15T09:22:06;12.10;1.00
17178;DHT22;8704;52.006;4.374;2023-04-15T09:24:36;12.20;99.90
17178;DHT22;8704;52.006;4.374;2023-04-15T09:27:05;12.20;1.00
17178;DHT22;8704;52.006;4.374;2023-04-15T09:29:34;12.30;1.00
17178;DHT22;8704;52.006;4.374;2023-04-15T09:32:10;12.40;1.00
17178;DHT22;8704;52.006;4.374;2023-04-15T09:34:38;12.50;1.00
17178;DHT22;8704;52.006;4.374;2023-04-15T09:37:06;12.50;1.00
17178;DHT22;8704;52.006;4.374;2023-04-15T09:39:47;12.60;1.00
17178;DHT22;8704;52.006;4.374;2023-04-15T09:42:15;12.60;99.90
17178;DHT22;8704;52.006;4.374;2023-04-15T09:44:51;12.70;99.90
17178;DHT22;8704;52.006;4.374;2023-04-15T09:47:28;13.70;1.00
17178;DHT22;8704;52.006;4.374;2023-04-15T09:49:57;12.90;99.90
17178;DHT22;8704;52.006;4.374;2023-04-15T09:52:25;12.90;99.90
17178;DHT22;8704;52.006;4.374;2023-04-15T09:54:55;13.40;99.90
17178;DHT22;8704;52.006;4.374;2023-04-15T09:57:24;13.40;99.90
17178;DHT22;8704;52.006;4.374;2023-04-15T09:59:53;13.20;99.90
17178;DHT22;8704;52.006;4.374;2023-04-15T10:02:21;13.20;99.90
17178;DHT22;8704;52.006;4.374;2023-04-15T10:04:51;13.20;99.90
17178;DHT22;8704;52.006;4.374;2023-04-15T10:07:20;13.20;99.90
17178;DHT22;8704;52.006;4.374;2023-04-15T10:09:49;13.30;99.90
17178;DHT22;8704;52.006;4.374;2023-04-15T10:12:18;13.50;99.90
17178;DHT22;8704;52.006;4.374;2023-04-15T10:14:52;13.40;99.90
17178;DHT22;8704;52.006;4.374;2023-04-15T10:17:26;13.60;99.90
17178;DHT22;8704;52.006;4.374;2023-04-15T10:19:59;13.60;99.90
17178;DHT22;8704;52.006;4.374;2023-04-15T10:22:29;13.80;99.90
17178;DHT22;8704;52.006;4.374;2023-04-15T10:24:57;13.90;99.90
17178;DHT22;8704;52.006;4.374;2023-04-15T10:27:26;13.90;99.90
17178;DHT22;8704;52.006;4.374;2023-04-15T10:29:55;14.00;99.90
17178;DHT22;8704;52.006;4.374;2023-04-15T10:32:25;14.10;99.90
17178;DHT22;8704;52.006;4.374;2023-04-15T10:34:54;14.10;99.90
17178;DHT22;8704;52.006;4.374;2023-04-15T10:37:33;14.20;99.90
17178;DHT22;8704;52.006;4.374;2023-04-15T10:40:23;13.80;99.90
17178;DHT22;8704;52.006;4.374;2023-04-15T10:42:53;14.30;99.90
17178;DHT22;8704;52.006;4.374;2023-04-15T10:45:24;14.40;99.90
17178;DHT22;8704;52.006;4.374;2023-04-15T10:48:00;14.60;99.90
17178;DHT22;8704;52.006;4.374;2023-04-15T10:50:30;14.70;99.90
17178;DHT22;8704;52.006;4.374;2023-04-15T10:53:01;14.80;99.90
17178;DHT22;8704;52.006;4.374;2023-04-15T10:55:31;14.80;99.90
17178;DHT22;8704;52.006;4.374;2023-04-15T10:58:00;14.90;99.90
17178;DHT22;8704;52.006;4.374;2023-04-15T11:00:30;14.90;99.90
17178;DHT22;8704;52.006;4.374;2023-04-15T11:03:05;15.00;99.90
17178;DHT22;8704;52.006;4.374;2023-04-15T11:05:50;15.10;99.90
17178;DHT22;8704;52.006;4.374;2023-04-15T11:08:18;15.20;99.90
17178;DHT22;8704;52.006;4.374;2023-04-15T11:10:51;15.30;99.90
17178;DHT22;8704;52.006;4.374;2023-04-15T11:13:26;15.40;99.90
17178;DHT22;8704;52.006;4.374;2023-04-15T11:15:59;15.60;99.90
17178;DHT22;8704;52.006;4.374;2023-04-15T11:18:31;15.70;99.90
17178;DHT22;8704;52.006;4.374;2023-04-15T11:21:04;15.70;99.90
17178;DHT22;8704;52.006;4.374;2023-04-15T11:23:35;16.00;99.90
17178;DHT22;8704;52.006;4.374;2023-04-15T11:26:05;16.00;99.90
17178;DHT22;8704;52.006;4.374;2023-04-15T11:28:36;16.20;99.90
17178;DHT22;8704;52.006;4.374;2023-04-15T11:31:07;16.20;99.90
17178;DHT22;8704;52.006;4.374;2023-04-15T11:33:43;16.30;99.90
17178;DHT22;8704;52.006;4.374;2023-04-15T11:36:12;16.40;99.90
17178;DHT22;8704;52.006;4.374;2023-04-15T11:38:43;16.40;99.90
17178;DHT22;8704;52.006;4.374;2023-04-15T11:41:13;16.60;99.90
17178;DHT22;8704;52.006;4.374;2023-04-15T11:43:41;16.60;99.90
17178;DHT22;8704;52.006;4.374;2023-04-15T11:46:09;16.70;99.90
17178;DHT22;8704;52.006;4.374;2023-04-15T11:48:41;16.90;99.90
17178;DHT22;8704;52.006;4.374;2023-04-15T11:51:11;16.90;99.90
17178;DHT22;8704;52.006;4.374;2023-04-15T11:53:42;17.00;99.90
17178;DHT22;8704;52.006;4.374;2023-04-15T11:56:16;16.70;99.90
17178;DHT22;8704;52.006;4.374;2023-04-15T11:58:44;16.70;99.90
17178;DHT22;8704;52.006;4.374;2023-04-15T12:01:13;17.00;99.90
17178;DHT22;8704;52.006;4.374;2023-04-15T12:03:44;17.10;99.90
17178;DHT22;8704;52.006;4.374;2023-04-15T12:06:15;17.10;99.90
17178;DHT22;8704;52.006;4.374;2023-04-15T12:09:09;17.00;99.90
17178;DHT22;8704;52.006;4.374;2023-04-15T12:11:40;17.00;99.90
17178;DHT22;8704;52.006;4.374;2023-04-15T12:14:20;17.10;99.90
17178;DHT22;8704;52.006;4.374;2023-04-15T12:16:49;17.20;99.90
17178;DHT22;8704;52.006;4.374;2023-04-15T12:19:24;17.30;99.90
17178;DHT22;8704;52.006;4.374;2023-04-15T12:21:56;17.30;99.90
17178;DHT22;8704;52.006;4.374;2023-04-15T12:24:26;17.60;99.90
17178;DHT22;8704;52.006;4.374;2023-04-15T12:26:55;17.40;99.90
17178;DHT22;8704;52.006;4.374;2023-04-15T12:29:25;17.30;99.90
17178;DHT22;8704;52.006;4.374;2023-04-15T12:31:55;17.10;99.90
17178;DHT22;8704;52.006;4.374;2023-04-15T12:34:29;17.10;99.90
17178;DHT22;8704;52.006;4.374;2023-04-15T12:36:58;17.30;99.90
17178;DHT22;8704;52.006;4.374;2023-04-15T12:39:30;17.30;99.90
17178;DHT22;8704;52.006;4.374;2023-04-15T12:41:58;17.60;99.90
17178;DHT22;8704;52.006;4.374;2023-04-15T12:44:27;17.90;99.90
17178;DHT22;8704;52.006;4.374;2023-04-15T12:46:55;18.20;99.90
17178;DHT22;8704;52.006;4.374;2023-04-15T12:49:25;18.40;99.90
17178;DHT22;8704;52.006;4.374;2023-04-15T12:51:56;18.30;99.90
17178;DHT22;8704;52.006;4.374;2023-04-15T12:54:25;18.30;99.90
17178;DHT22;8704;52.006;4.374;2023-04-15T12:56:54;18.40;99.90
17178;DHT22;8704;52.006;4.374;2023-04-15T12:59:22;18.50;99.90
17178;DHT22;8704;52.006;4.374;2023-04-15T13:01:51;18.40;99.90
17178;DHT22;8704;52.006;4.374;2023-04-15T13:04:20;18.40;99.90
17178;DHT22;8704;52.006;4.374;2023-04-15T13:06:48;18.50;99.90
17178;DHT22;8704;52.006;4.374;2023-04-15T13:09:18;18.70;99.90
17178;DHT22;8704;52.006;4.374;2023-04-15T13:11:46;18.80;99.90
17178;DHT22;8704;52.006;4.374;2023-04-15T13:14:14;18.80;99.90
17178;DHT22;8704;52.006;4.374;2023-04-15T13:16:42;19.00;1.00
17178;DHT22;8704;52.006;4.374;2023-04-15T13:19:10;19.20;1.00
17178;DHT22;8704;52.006;4.374;2023-04-15T13:21:38;19.10;1.00
17178;DHT22;8704;52.006;4.374;2023-04-15T13:24:06;19.20;99.90
17178;DHT22;8704;52.006;4.374;2023-04-15T13:26:36;19.10;99.90
17178;DHT22;8704;52.006;4.374;2023-04-15T13:29:04;19.30;1.00
17178;DHT22;8704;52.006;4.374;2023-04-15T13:31:32;19.70;1.00
17178;DHT22;8704;52.006;4.374;2023-04-15T13:34:01;19.80;1.00
17178;DHT22;8704;52.006;4.374;2023-04-15T13:36:29;19.70;99.90
17178;DHT22;8704;52.006;4.374;2023-04-15T13:38:57;19.70;1.00
17178;DHT22;8704;52.006;4.374;2023-04-15T13:41:25;19.70;1.00
17178;DHT22;8704;52.006;4.374;2023-04-15T13:43:55;20.10;1.00
17178;DHT22;8704;52.006;4.374;2023-04-15T13:46:24;20.40;1.00
17178;DHT22;8704;52.006;4.374;2023-04-15T13:48:52;20.30;1.00
17178;DHT22;8704;52.006;4.374;2023-04-15T13:51:20;20.80;1.00
17178;DHT22;8704;52.006;4.374;2023-04-15T13:53:48;20.70;1.00
17178;DHT22;8704;52.006;4.374;2023-04-15T13:56:16;21.00;1.00
17178;DHT22;8704;52.006;4.374;2023-04-15T13:58:44;20.70;1.00
17178;DHT22;8704;52.006;4.374;2023-04-15T14:01:13;20.40;99.90
17178;DHT22;8704;52.006;4.374;2023-04-15T14:03:42;21.10;1.00
17178;DHT22;8704;52.006;4.374;2023-04-15T14:06:10;20.80;1.00
17178;DHT22;8704;52.006;4.374;2023-04-15T14:08:38;20.90;1.00
17178;DHT22;8704;52.006;4.374;2023-04-15T14:11:06;21.20;1.00
17178;DHT22;8704;52.006;4.374;2023-04-15T14:13:35;21.80;1.00
17178;DHT22;8704;52.006;4.374;2023-04-15T14:16:03;21.90;1.00
17178;DHT22;8704;52.006;4.374;2023-04-15T14:18:33;22.00;1.00
17178;DHT22;8704;52.006;4.374;2023-04-15T14:21:05;21.80;1.00
17178;DHT22;8704;52.006;4.374;2023-04-15T14:23:33;22.40;1.00
17178;DHT22;8704;52.006;4.374;2023-04-15T14:26:01;22.40;1.00
17178;DHT22;8704;52.006;4.374;2023-04-15T14:28:29;22.50;1.00
17178;DHT22;8704;52.006;4.374;2023-04-15T14:30:57;21.90;99.90
17178;DHT22;8704;52.006;4.374;2023-04-15T14:33:26;22.30;1.00
17178;DHT22;8704;52.006;4.374;2023-04-15T14:35:55;22.30;1.00
17178;DHT22;8704;52.006;4.374;2023-04-15T14:38:24;21.60;1.00
17178;DHT22;8704;52.006;4.374;2023-04-15T14:40:51;22.20;1.00
17178;DHT22;8704;52.006;4.374;2023-04-15T14:43:20;21.40;99.90
17178;DHT22;8704;52.006;4.374;2023-04-15T14:45:48;21.80;99.90
17178;DHT22;8704;52.006;4.374;2023-04-15T14:48:17;22.00;1.00
17178;DHT22;8704;52.006;4.374;2023-04-15T14:50:45;22.30;1.00
17178;DHT22;8704;52.006;4.374;2023-04-15T14:53:14;22.40;1.00
17178;DHT22;8704;52.006;4.374;2023-04-15T14:55:42;22.30;1.00
17178;DHT22;8704;52.006;4.374;2023-04-15T14:58:11;22.50;1.00
17178;DHT22;8704;52.006;4.374;2023-04-15T15:00:39;22.00;1.00
17178;DHT22;8704;52.006;4.374;2023-04-15T15:03:10;21.90;1.00
17178;DHT22;8704;52.006;4.374;2023-04-15T15:05:39;22.30;1.00
17178;DHT22;8704;52.006;4.374;2023-04-15T15:08:08;22.40;1.00
17178;DHT22;8704;52.006;4.374;2023-04-15T15:10:39;22.40;1.00
17178;DHT22;8704;52.006;4.374;2023-04-15T15:13:15;22.60;1.00
17178;DHT22;8704;52.006;4.374;2023-04-15T15:15:44;21.60;99.90
17178;DHT22;8704;52.006;4.374;2023-04-15T15:18:12;22.10;1.00
17178;DHT22;8704;52.006;4.374;2023-04-15T15:20:40;22.50;99.90
17178;DHT22;8704;52.006;4.374;2023-04-15T15:23:08;22.50;1.00
17178;DHT22;8704;52.006;4.374;2023-04-15T15:25:37;22.70;1.00
17178;DHT22;8704;52.006;4.374;2023-04-15T15:28:06;22.10;99.90
17178;DHT22;8704;52.006;4.374;2023-04-15T15:30:34;22.60;1.00
17178;DHT22;8704;52.006;4.374;2023-04-15T15:33:02;22.20;99.90
17178;DHT22;8704;52.006;4.374;2023-04-15T15:35:30;22.50;99.90
17178;DHT22;8704;52.006;4.374;2023-04-15T15:37:59;22.50;99.90
17178;DHT22;8704;52.006;4.374;2023-04-15T15:40:27;22.30;99.90
17178;DHT22;8704;52.006;4.374;2023-04-15T15:42:56;22.80;99.90
17178;DHT22;8704;52.006;4.374;2023-04-15T15:45:24;23.00;1.00
17178;DHT22;8704;52.006;4.374;2023-04-15T15:47:52;22.90;99.90
17178;DHT22;8704;52.006;4.374;2023-04-15T15:50:22;22.90;1.00
17178;DHT22;8704;52.006;4.374;2023-04-15T15:52:51;23.10;1.00
17178;DHT22;8704;52.006;4.374;2023-04-15T15:55:19;23.40;1.00
17178;DHT22;8704;52.006;4.374;2023-04-15T15:57:47;23.40;1.00
17178;DHT22;8704;52.006;4.374;2023-04-15T16:00:17;23.70;99.90
17178;DHT22;8704;52.006;4.374;2023-04-15T16:02:45;23.50;99.90
17178;DHT22;8704;52.006;4.374;2023-04-15T16:05:15;23.10;99.90
17178;DHT22;8704;52.006;4.374;2023-04-15T16:07:43;22.80;99.90
17178;DHT22;8704;52.006;4.374;2023-04-15T16:10:12;22.70;99.90
17178;DHT22;8704;52.006;4.374;2023-04-15T16:12:40;22.30;99.90
17178;DHT22;8704;52.006;4.374;2023-04-15T16:15:09;22.50;99.90